Latest Weather Observations for Holsworthy

IDN60801

Issued at 10:04 am EDT Monday 2 March 2015 (issued every 30 minutes, with the page automatically refreshed every 10 minutes)

About weather observations | Map of weather stations | Latest weather observations for NSW | Other Formats
Station Details ID: 066161 Name: HOLSWORTHY AERODROME AWS Lat: -33.99 Lon: 150.95 Height: 68.16 m
Data from the previous 72 hours. | See also: Recent months at Holsworthy
Date/Time
EDT
Temp
°C
App
Temp
°C
Dew
Point
Rel
Hum
%
Delta-T
°C
Wind Press
QNH
hPa
Press
MSL
hPa
Rain
since 9 am
mm
Dir
 
Spd
km/h
Gust
km/h
Spd
kts
Gust
kts
02/10:00am 21.1 19.1 14.0 64 4.1 S 17 24 9 13 1019.4 1019.1 0.0
02/09:30am 19.4 19.5 14.4 73 2.9 SSW 7 11 4 6 1019.1 1018.8 0.0
02/09:00am 18.1 17.5 13.4 74 2.7 WSW 9 13 5 7 1019.2 1018.9 8.0
02/08:30am 17.5 16.9 13.4 77 2.3 W 9 15 5 8 1018.8 1018.5 8.0
02/08:00am 16.6 15.8 12.9 79 2.1 WSW 9 13 5 7 1018.8 1018.5 8.0
02/07:30am 15.8 14.8 12.4 80 1.9 WSW 9 11 5 6 1018.5 1018.2 8.0
02/07:00am 15.3 13.9 12.1 81 1.7 WSW 11 13 6 7 1018.1 1017.8 8.0
02/06:30am 15.1 13.9 11.7 80 1.8 WSW 9 13 5 7 1017.8 1017.5 8.0
02/06:00am 15.6 14.0 11.6 77 2.2 WSW 11 13 6 7 1017.4 1017.1 8.0
02/05:30am 16.5 14.6 11.9 74 2.5 SW 13 20 7 11 1017.3 1017.0 8.0
02/05:00am 17.3 15.9 12.2 72 2.8 SW 11 17 6 9 1017.2 1016.9 8.0
02/04:30am 17.7 16.8 12.6 72 2.8 WSW 9 15 5 8 1017.0 1016.7 8.0
02/04:00am 17.9 17.0 12.6 71 3.0 WSW 9 13 5 7 1016.9 1016.6 8.0
02/03:30am 18.2 17.4 12.9 71 3.0 SW 9 13 5 7 1017.2 1016.9 8.0
02/03:00am 18.4 17.2 12.8 70 3.1 SW 11 20 6 11 1017.4 1017.1 8.0
02/02:30am 19.3 17.8 13.2 68 3.5 SSW 13 24 7 13 1017.2 1016.9 8.0
02/02:00am 19.6 18.2 13.3 67 3.6 S 13 24 7 13 1017.2 1016.9 8.0
02/01:30am 19.3 18.5 13.0 67 3.6 SW 9 17 5 9 1017.3 1017.0 8.0
02/01:00am 19.6 18.3 12.4 63 4.0 S 11 20 6 11 1017.2 1016.9 8.0
02/12:30am 20.0 17.9 12.3 61 4.3 S 15 24 8 13 1017.5 1017.2 8.0
02/12:00am 20.2 17.4 13.2 64 4.0 S 20 32 11 17 1017.2 1016.9 8.0
 
Date/Time
EDT
Temp
°C
App
Temp
°C
Dew
Point
Rel
Hum
%
Delta-T
°C
Wind Press
QNH
hPa
Press
MSL
hPa
Rain
since 9 am
mm
Dir
 
Spd
km/h
Gust
km/h
Spd
kts
Gust
kts
01/11:30pm 20.2 18.0 13.2 64 4.0 S 17 22 9 12 1017.1 1016.8 8.0
01/11:00pm 20.4 17.7 13.4 64 4.0 S 20 37 11 20 1016.9 1016.6 8.0
01/10:30pm 20.6 18.0 13.1 62 4.3 S 19 35 10 19 1016.5 1016.2 8.0
01/10:00pm 20.6 17.8 13.1 62 4.3 S 20 32 11 17 1016.0 1015.7 8.0
01/09:30pm 20.7 18.9 14.4 67 3.7 S 17 26 9 14 1015.4 1015.1 8.0
01/09:00pm 20.6 18.6 14.9 70 3.4 S 19 39 10 21 1014.7 1014.4 8.0
01/08:30pm 20.5 19.2 15.7 74 2.9 SSW 17 26 9 14 1013.8 1013.6 8.0
01/08:09pm 20.5 17.1 15.9 75 2.8 S 28 48 15 26 1013.0 1012.8 8.0
01/08:00pm 20.4 17.6 15.4 73 3.0 S 24 48 13 26 1012.8 1012.6 8.0
01/07:50pm 20.4 16.8 15.2 72 3.1 S 28 54 15 29 1012.3 1012.1 8.0
01/07:30pm 20.2 18.7 16.2 78 2.4 S 19 32 10 17 1012.0 1011.8 8.0
01/07:00pm 20.0 18.1 16.8 82 1.9 S 22 43 12 23 1010.9 1010.7 8.0
01/06:30pm 20.3 17.1 17.3 83 1.8 S 30 50 16 27 1010.0 1009.8 8.0
01/06:00pm 21.0 18.3 18.4 85 1.6 SSE 30 48 16 26 1008.5 1008.3 8.0
01/05:30pm 21.1 18.4 19.6 91 1.0 S 33 59 18 32 1007.1 1006.8 8.0
01/05:06pm 21.0 18.7 19.3 90 1.1 S 30 50 16 27 1007.2 1006.9 6.8
01/05:04pm 21.0 18.2 19.1 89 1.2 SSW 32 50 17 27 1007.3 1007.0 6.2
01/05:01pm 21.2 18.8 19.1 88 1.3 SSW 30 48 16 26 1007.7 1007.4 6.0
01/05:00pm 21.4 18.7 19.3 88 1.3 SSW 32 48 17 26 1008.0 1007.8 5.6
01/04:44pm 21.6 18.9 19.3 87 1.5 S 32 50 17 27 1006.9 1006.6 5.4
01/04:30pm 22.0 18.3 19.9 88 1.3 S 39 63 21 34 1004.9 1004.6 5.4
01/04:05pm 21.4 17.9 19.7 90 1.1 SSE 37 59 20 32 1004.3 1004.0 5.4
01/04:01pm 21.9 19.2 20.5 92 0.9 SSE 35 50 19 27 1004.5 1004.2 5.2
01/04:00pm 21.8 19.0 20.3 91 1.0 SSE 35 50 19 27 1004.4 1004.1 5.2
01/03:56pm 21.9 18.5 20.7 93 0.8 SSE 39 57 21 31 1004.0 1003.7 5.2
01/03:47pm 22.0 17.6 20.6 92 0.9 S 44 69 24 37 1004.0 1003.7 4.8
01/03:39pm 22.8 20.5 20.5 87 1.5 SSW 33 57 18 31 1004.4 1004.1 2.4
01/03:34pm 24.5 21.2 19.3 73 3.3 S 35 57 19 31 1005.6 1005.3 0.2
01/03:30pm 26.2 25.1 18.6 63 4.9 S 22 56 12 30 1005.2 1004.9 0.0
01/03:26pm 30.1 31.2 17.9 48 7.8 WSW 9 54 5 29 1004.1 1003.8 0.0
01/03:00pm 34.9 35.3 17.2 35 11.4 N 11 17 6 9 1002.8 1002.5 0.0
01/02:30pm 34.2 35.8 18.3 39 10.4 NNW 7 13 4 7 1003.5 1003.2 0.0
01/02:00pm 33.8 34.1 17.1 37 10.7 NNW 11 19 6 10 1004.0 1003.7 0.0
01/01:30pm 35.0 35.4 19.0 39 10.6 N 15 28 8 15 1004.3 1004.0 0.0
01/01:00pm 34.0 34.4 18.9 41 9.9 N 15 20 8 11 1004.8 1004.5 0.0
01/12:30pm 32.6 32.9 18.0 41 9.4 NNW 13 19 7 10 1005.4 1005.1 0.0
01/12:00pm 31.8 32.8 18.7 45 8.5 NNW 11 17 6 9 1005.8 1005.5 0.0
01/11:30am 30.2 31.7 18.9 50 7.3 NNW 9 15 5 8 1006.2 1005.9 0.0
01/11:00am 29.0 30.8 19.6 57 6.2 WNW 9 13 5 7 1006.4 1006.1 0.0
01/10:30am 27.3 29.0 19.4 62 5.1 NW 9 13 5 7 1006.3 1006.0 0.0
01/10:00am 25.9 27.4 18.8 65 4.6 NNW 9 13 5 7 1006.4 1006.1 0.0
01/09:30am 23.9 25.4 18.8 73 3.2 NNW 9 13 5 7 1006.5 1006.2 0.0
01/09:00am 22.7 24.6 19.7 83 1.9 NNW 9 15 5 8 1006.6 1006.3 0.0
01/08:30am 21.2 23.3 19.3 89 1.2 NNW 7 11 4 6 1006.3 1006.0 0.0
01/08:00am 20.7 23.0 19.5 93 0.8 WNW 6 9 3 5 1006.5 1006.2 0.0
01/07:30am 19.9 22.1 19.2 96 0.4 WSW 6 7 3 4 1006.4 1006.1 0.0
01/07:00am 18.7 19.8 18.0 96 0.4 SW 9 11 5 6 1006.3 1006.0 0.0
01/06:30am 18.5 19.5 17.8 96 0.4 SW 9 11 5 6 1005.9 1005.6 0.0
01/06:00am 17.7 18.8 16.7 94 0.6 SW 6 7 3 4 1005.6 1005.3 0.0
01/05:30am 18.1 20.5 17.1 94 0.6 CALM 0 0 0 0 1005.6 1005.3 0.0
01/05:00am 17.8 20.1 16.7 93 0.7 CALM 0 0 0 0 1005.6 1005.3 0.0
01/04:30am 18.6 20.9 17.6 94 0.6 SSW 2 6 1 3 1005.6 1005.3 0.0
01/04:00am 18.8 20.3 17.6 93 0.7 S 6 7 3 4 1005.7 1005.4 0.0
01/03:30am 19.0 21.0 17.8 93 0.7 ESE 4 9 2 5 1006.0 1005.7 0.0
01/03:00am 19.6 22.5 18.3 92 0.8 CALM 0 0 0 0 1006.4 1006.1 0.0
01/02:30am 19.7 21.5 18.2 91 0.9 E 6 7 3 4 1006.5 1006.2 0.0
01/02:00am 19.7 21.5 18.2 91 0.9 ESE 6 7 3 4 1006.9 1006.6 0.0
01/01:30am 20.2 22.2 18.7 91 0.9 ESE 6 7 3 4 1007.4 1007.1 0.0
01/01:00am 20.1 21.8 18.4 90 1.1 ESE 7 7 4 4 1007.9 1007.6 0.0
01/12:30am 20.8 22.8 18.7 88 1.3 ESE 6 7 3 4 1008.1 1007.8 0.0
01/12:00am 21.3 23.4 19.0 87 1.5 E 6 7 3 4 1008.3 1008.0 0.0
 
Date/Time
EDT
Temp
°C
App
Temp
°C
Dew
Point
Rel
Hum
%
Delta-T
°C
Wind Press
QNH
hPa
Press
MSL
hPa
Rain
since 9 am
mm
Dir
 
Spd
km/h
Gust
km/h
Spd
kts
Gust
kts
28/11:30pm 21.8 23.8 19.2 85 1.7 E 7 9 4 5 1008.4 1008.1 0.0
28/11:00pm 22.1 24.1 19.1 83 1.9 ENE 7 9 4 5 1008.7 1008.4 0.0
28/10:30pm 22.3 24.3 19.1 82 2.0 ENE 7 9 4 5 1008.8 1008.5 0.0
28/10:00pm 22.5 24.5 19.1 81 2.2 NE 7 11 4 6 1008.9 1008.6 0.0
28/09:30pm 22.7 24.5 19.5 82 2.0 E 9 13 5 7 1008.8 1008.5 0.0
28/09:00pm 23.0 24.8 19.6 81 2.2 E 9 13 5 7 1008.4 1008.1 0.0
28/08:30pm 23.3 24.3 19.5 79 2.4 ENE 13 19 7 10 1008.1 1007.8 0.0
28/08:00pm 23.7 24.7 19.4 77 2.8 ENE 13 15 7 8 1007.9 1007.6 0.0
28/07:30pm 24.4 25.1 18.8 71 3.6 ENE 13 24 7 13 1007.6 1007.3 0.0
28/07:00pm 25.3 26.0 19.7 71 3.6 ENE 15 20 8 11 1007.4 1007.1 0.0
28/06:30pm 26.2 26.5 19.6 67 4.3 ENE 17 24 9 13 1007.4 1007.1 0.0
28/06:00pm 26.9 27.2 19.5 64 4.8 E 17 26 9 14 1007.5 1007.2 0.0
28/05:30pm 27.5 27.7 19.3 61 5.3 ENE 17 26 9 14 1007.5 1007.2 0.0
28/05:00pm 27.7 27.2 18.7 58 5.8 ENE 19 24 10 13 1007.5 1007.2 0.0
28/04:30pm 27.4 27.0 18.9 59 5.5 E 19 24 10 13 1007.5 1007.2 0.0
28/04:00pm 27.4 27.0 18.9 59 5.5 E 19 24 10 13 1007.6 1007.3 0.0
28/03:30pm 27.7 27.0 18.7 58 5.8 E 20 26 11 14 1007.9 1007.6 0.0
28/03:00pm 27.7 27.7 19.0 59 5.6 E 17 24 9 13 1008.5 1008.2 0.0
28/02:30pm 28.0 28.6 18.7 57 6.0 E 13 19 7 10 1008.5 1008.2 0.0
28/02:00pm 28.2 29.0 17.4 52 6.8 ENE 9 19 5 10 1008.9 1008.6 0.0
28/01:30pm 27.5 27.1 16.1 49 7.0 NNE 13 19 7 10 1009.4 1009.1 0.0
28/01:00pm 26.8 27.5 17.0 55 6.1 NNE 9 15 5 8 1009.7 1009.4 0.0
28/12:30pm 26.8 27.4 17.6 57 5.8 N 11 19 6 10 1010.0 1009.7 0.0
28/12:00pm 26.0 27.3 19.4 67 4.3 NE 11 17 6 9 1010.6 1010.3 0.0
28/11:30am 24.7 26.3 19.1 71 3.6 N 9 15 5 8 1010.8 1010.5 0.0
28/11:00am 23.6 25.6 19.1 76 2.9 N 7 13 4 7 1011.2 1010.9 0.0
28/10:30am 22.5 25.9 19.3 82 2.0 CALM 0 0 0 0 1011.3 1011.0 0.0
28/10:00am 21.7 25.0 20.0 90 1.1 WSW 2 7 1 4 1011.3 1011.0 0.0
28/09:30am 20.8 23.1 19.5 92 0.8 WNW 6 7 3 4 1011.3 1011.0 0.0
28/09:00am 20.4 23.5 19.4 94 0.6 NW 2 6 1 3 1011.2 1010.9 0.0
28/08:30am 19.9 23.2 19.2 96 0.4 CALM 0 0 0 0 1011.1 1010.8 0.0
28/08:00am 19.1 22.1 18.4 96 0.4 CALM 0 0 0 0 1010.9 1010.6 0.0
28/07:30am 18.8 21.7 18.1 96 0.4 CALM 0 0 0 0 1010.6 1010.3 0.0
28/07:00am 17.6 19.5 16.8 95 0.5 SW 2 9 1 5 1010.6 1010.3 0.0
28/06:30am 17.9 20.3 16.9 94 0.6 CALM 0 0 0 0 1010.3 1010.0 0.0
28/06:00am 18.3 19.8 17.5 95 0.5 ESE 6 7 3 4 1010.0 1009.7 0.0
28/05:30am 18.1 19.3 17.3 95 0.5 SE 7 7 4 4 1009.8 1009.5 0.0
28/05:00am 18.2 19.6 17.4 95 0.5 SE 6 7 3 4 1009.6 1009.3 0.0
28/04:30am 18.6 20.0 17.8 95 0.5 ESE 7 9 4 5 1009.5 1009.2 0.0
28/04:00am 18.6 20.2 17.8 95 0.5 SE 6 7 3 4 1009.8 1009.5 0.0
28/03:30am 18.5 19.0 17.5 94 0.6 SE 11 11 6 6 1009.9 1009.6 0.0
28/03:00am 18.9 20.5 17.9 94 0.6 ESE 6 7 3 4 1010.0 1009.7 0.0
28/02:30am 18.9 21.6 17.7 93 0.7 CALM 0 0 0 0 1010.0 1009.7 0.0
28/02:00am 19.2 21.3 18.0 93 0.7 ESE 4 6 2 3 1010.2 1009.9 0.0
28/01:30am 19.6 21.8 18.4 93 0.7 ESE 4 7 2 4 1010.5 1010.2 0.0
28/01:00am 19.9 23.0 18.6 92 0.8 CALM 0 0 0 0 1010.7 1010.4 0.0
28/12:30am 19.9 22.9 18.4 91 0.9 CALM 0 0 0 0 1010.9 1010.6 0.0
28/12:00am 20.3 23.5 18.8 91 0.9 CALM 0 0 0 0 1011.3 1011.0 0.0
 
Date/Time
EDT
Temp
°C
App
Temp
°C
Dew
Point
Rel
Hum
%
Delta-T
°C
Wind Press
QNH
hPa
Press
MSL
hPa
Rain
since 9 am
mm
Dir
 
Spd
km/h
Gust
km/h
Spd
kts
Gust
kts
27/11:30pm 20.1 23.2 18.6 91 0.9 CALM 0 0 0 0 1011.5 1011.2 0.0
27/11:00pm 20.5 23.1 18.4 88 1.3 E 2 6 1 3 1011.4 1011.1 0.0
27/10:30pm 21.2 23.3 18.9 87 1.5 SE 6 7 3 4 1011.4 1011.1 0.0
27/10:00pm 21.4 23.5 19.0 86 1.5 SE 6 7 3 4 1011.4 1011.1 0.0
27/09:30pm 21.6 23.5 19.0 85 1.6 ESE 7 9 4 5 1011.1 1010.8 0.0
27/09:00pm 22.0 23.5 18.8 82 2.0 ESE 9 11 5 6 1010.8 1010.5 0.0
27/08:30pm 22.3 23.4 18.9 81 2.2 ESE 11 15 6 8 1010.3 1010.0 0.0
27/08:00pm 22.7 23.4 18.9 79 2.4 ESE 13 17 7 9 1010.0 1009.7 0.0
27/07:30pm 23.3 24.3 18.6 75 3.0 ESE 11 15 6 8 1009.6 1009.3 0.0
27/07:00pm 23.9 23.2 17.4 67 4.0 E 17 20 9 11 1009.2 1008.9 0.0
27/06:30pm 24.7 25.1 18.9 70 3.7 ENE 15 20 8 11 1008.9 1008.6 0.0
27/06:00pm 25.1 25.3 18.5 67 4.2 E 15 20 8 11 1008.8 1008.5 0.0
27/05:30pm 25.5 25.0 17.7 62 4.9 E 17 26 9 14 1008.8 1008.5 0.0
27/05:00pm 26.0 25.2 17.9 61 5.1 E 19 24 10 13 1008.7 1008.4 0.0
27/04:30pm 26.4 25.8 17.5 58 5.6 E 17 24 9 13 1008.7 1008.4 0.0
27/04:00pm 26.2 25.2 17.6 59 5.4 E 19 28 10 15 1008.8 1008.5 0.0
27/03:30pm 26.4 25.6 17.2 57 5.8 E 17 24 9 13 1009.2 1008.9 0.0
27/03:00pm 26.4 25.8 17.5 58 5.6 SE 17 26 9 14 1009.5 1009.2 0.0
27/02:30pm 26.1 25.3 17.2 58 5.6 SE 17 24 9 13 1009.8 1009.5 0.0
27/02:00pm 26.4 26.0 18.0 60 5.3 SE 17 20 9 11 1009.8 1009.5 0.0
27/01:30pm 26.2 26.3 18.3 61 5.0 SE 15 19 8 10 1009.9 1009.6 0.0
27/01:00pm 25.2 24.7 17.7 63 4.7 SSE 17 20 9 11 1010.4 1010.1 0.0
27/12:30pm 25.5 26.3 18.2 64 4.6 SE 11 15 6 8 1010.6 1010.3 0.0
27/12:00pm 25.2 25.4 17.7 63 4.7 E 13 20 7 11 1011.0 1010.7 0.0
27/11:30am 24.9 25.3 18.1 66 4.3 SSE 13 19 7 10 1011.1 1010.8 0.0
27/11:00am 24.1 25.1 18.7 72 3.4 S 11 17 6 9 1011.5 1011.2 0.0
27/10:30am 25.1 26.2 19.7 72 3.5 SSE 13 28 7 15 1011.5 1011.2 0.0

Other Formats:

Comma delimited format used in spreadsheet applications
http://www.bom.gov.au/fwo/IDN60801/IDN60801.95761.axf

JavaScript Object Notation format (JSON) in row-major order
http://www.bom.gov.au/fwo/IDN60801/IDN60801.95761.json